Advance Mills, Virginia
Current Conditions -  °F | °C
As of 3:53 AM on Monday 24 Nov 2014 (Local Time) from KCHO Reporting Station
Broken Clouds Broken Clouds  
Wind Chill: 55°   Ceiling: 3300
Heat Index: 55°   Visibility: 10mi
Dew Point: 54°   Wind: 10mph
Humidity: 96%   Direction: 190°S
Pressure: 29.66"   Gusts: NA
Location:  38.2469°N, 78.3926°W
Report Text: KCHO 240853Z AUTO 19009KT 10SM FEW016 BKN033 BKN041 13/12 A2966 RMK AO2 RAB12E26 SLP040 P0000 60010 T01280122 55007
Loading
Personal Weather Stations






























Interactive Weather Map New forecast layout! Learn more

10-Day Weather Forecast

Advertisements
Track Severe Weather on mobile